Time;durP1;ratioP1;P1;durP2;ratioP2;P2;SDS_P1;SDS_P2;PMS_P1;PMS_P2;Temp;Humidity;BMP_temperature;BMP_pressure;BME280_temperature;BME280_humidity;BME280_pressure;Samples;Min_cycle;Max_cycle;Signal;HPM_P1;HPM_P2
2023/09/14 00:01:49;;;;;;;11.10;8.70;;;11.60;80.60;;;;;;5112843;28;20205;-88
2023/09/14 00:04:14;;;;;;;10.17;8.37;;;11.50;80.80;;;;;;5113714;28;20699;-89
2023/09/14 00:06:41;;;;;;;13.13;8.67;;;11.50;81.40;;;;;;5112683;28;20220;-89
2023/09/14 00:09:07;;;;;;;9.63;8.83;;;11.60;81.40;;;;;;5113809;28;20211;-89
2023/09/14 00:11:32;;;;;;;9.60;8.63;;;11.60;81.20;;;;;;5112513;28;20590;-89
2023/09/14 00:13:58;;;;;;;9.97;9.10;;;11.60;81.20;;;;;;5112476;28;20186;-89
2023/09/14 00:16:23;;;;;;;11.27;10.10;;;11.60;81.10;;;;;;5114091;28;20256;-88
2023/09/14 00:18:49;;;;;;;10.97;9.90;;;11.50;81.00;;;;;;5112503;28;20201;-89
2023/09/14 00:21:14;;;;;;;10.97;9.60;;;11.50;81.00;;;;;;5112648;28;20223;-89
2023/09/14 00:23:40;;;;;;;11.13;10.10;;;11.40;81.10;;;;;;5113931;28;20186;-88
2023/09/14 00:26:05;;;;;;;10.30;9.30;;;11.40;81.20;;;;;;5115323;28;20553;-88
2023/09/14 00:28:31;;;;;;;11.37;10.17;;;11.40;81.30;;;;;;5116631;28;20174;-88
2023/09/14 00:30:57;;;;;;;11.20;9.77;;;11.40;81.20;;;;;;5116584;28;20170;-91
2023/09/14 00:33:23;;;;;;;11.20;10.07;;;11.30;81.30;;;;;;5116666;28;20677;-89
2023/09/14 00:35:48;;;;;;;10.53;9.43;;;11.30;81.60;;;;;;5116380;28;20253;-89
2023/09/14 00:38:14;;;;;;;10.20;9.10;;;11.30;81.70;;;;;;5117719;28;20201;-89
2023/09/14 00:40:40;;;;;;;9.40;8.57;;;11.20;81.70;;;;;;5117731;28;20641;-89
2023/09/14 00:43:07;;;;;;;9.70;8.80;;;11.20;81.70;;;;;;5117510;28;20168;-89
2023/09/14 00:45:32;;;;;;;11.13;9.70;;;11.20;81.60;;;;;;5116376;28;20714;-89
2023/09/14 00:48:02;;;;;;;10.20;9.30;;;11.20;81.50;;;;;;5116302;28;20174;-89
2023/09/14 00:50:28;;;;;;;10.53;9.23;;;11.10;81.30;;;;;;5116229;28;20227;-89
2023/09/14 00:53:00;;;;;;;9.90;8.90;;;11.10;81.50;;;;;;5117403;27;20174;-90
2023/09/14 00:55:27;;;;;;;9.90;9.00;;;11.00;81.50;;;;;;5116156;28;20737;-90
2023/09/14 00:57:53;;;;;;;11.10;9.90;;;11.00;81.50;;;;;;5117485;28;20253;-89
2023/09/14 01:00:20;;;;;;;10.43;9.50;;;11.00;81.50;;;;;;5116330;28;20261;-89
2023/09/14 01:02:46;;;;;;;11.80;10.90;;;11.00;81.40;;;;;;5117248;28;20165;-89
2023/09/14 01:05:15;;;;;;;10.63;9.70;;;10.90;81.20;;;;;;5116072;28;20577;-89
2023/09/14 01:07:41;;;;;;;11.00;10.00;;;10.80;81.10;;;;;;5117121;28;20197;-89
2023/09/14 01:10:09;;;;;;;10.50;9.63;;;10.80;81.00;;;;;;5117341;28;20201;-89
2023/09/14 01:12:35;;;;;;;11.53;10.53;;;10.80;81.10;;;;;;5116060;28;20652;-89
2023/09/14 01:15:11;;;;;;;11.07;10.13;;;10.70;81.30;;;;;;5116957;28;20205;-90
2023/09/14 01:17:57;;;;;;;12.33;10.03;;;10.70;81.20;;;;;;5116795;28;20190;-89
2023/09/14 01:20:31;;;;;;;11.00;10.00;;;10.70;81.20;;;;;;5116605;28;20159;-89
2023/09/14 01:23:34;;;;;;;10.77;9.80;;;10.70;81.20;;;;;;5115122;28;20226;-89
2023/09/14 01:26:01;;;;;;;10.87;9.80;;;10.60;81.30;;;;;;5115603;28;20184;-89
2023/09/14 01:28:28;;;;;;;10.43;9.63;;;10.60;81.10;;;;;;5115600;28;20201;-89
2023/09/14 01:30:53;;;;;;;10.27;9.27;;;10.60;81.10;;;;;;5116824;27;20170;-89
2023/09/14 01:33:21;;;;;;;10.50;9.43;;;10.70;81.40;;;;;;5115308;28;20748;-89
2023/09/14 01:35:53;;;;;;;10.43;9.47;;;10.70;81.20;;;;;;5116478;28;20660;-90
2023/09/14 01:38:19;;;;;;;11.93;9.00;;;10.70;81.20;;;;;;5115655;28;20190;-90
2023/09/14 01:40:47;;;;;;;10.13;9.10;;;10.70;81.10;;;;;;5116458;28;20551;-90
2023/09/14 01:43:14;;;;;;;13.57;8.83;;;10.70;81.20;;;;;;5115150;28;20201;-88
2023/09/14 01:45:41;;;;;;;10.90;8.70;;;10.70;81.40;;;;;;5116405;28;20197;-88
2023/09/14 01:48:06;;;;;;;9.77;8.77;;;10.70;81.40;;;;;;5115136;28;20184;-88
2023/09/14 01:50:32;;;;;;;10.70;9.43;;;10.70;81.40;;;;;;5115134;28;20272;-89
2023/09/14 01:52:58;;;;;;;10.10;9.10;;;10.70;81.50;;;;;;5115022;28;20269;-89
2023/09/14 01:55:24;;;;;;;10.87;9.17;;;10.80;81.50;;;;;;5114988;28;20201;-90
2023/09/14 01:57:49;;;;;;;9.17;8.40;;;10.80;81.40;;;;;;5114868;28;20213;-90
2023/09/14 02:00:15;;;;;;;9.67;8.73;;;10.80;81.40;;;;;;5114940;28;20170;-90
2023/09/14 02:02:41;;;;;;;14.73;8.20;;;10.80;81.30;;;;;;5114899;28;20649;-89
2023/09/14 02:05:07;;;;;;;11.50;8.20;;;10.80;81.30;;;;;;5114781;28;20205;-89
2023/09/14 02:07:32;;;;;;;9.53;8.70;;;10.80;81.20;;;;;;5114748;28;20205;-88
2023/09/14 02:09:58;;;;;;;9.60;8.70;;;10.80;81.10;;;;;;5115970;28;20649;-89
2023/09/14 02:12:24;;;;;;;11.20;9.13;;;10.90;81.10;;;;;;5115942;28;20174;-89
2023/09/14 02:14:50;;;;;;;9.33;8.60;;;10.90;81.00;;;;;;5115771;28;20193;-90
2023/09/14 02:17:16;;;;;;;9.83;9.00;;;10.90;81.00;;;;;;5114600;28;20202;-89
2023/09/14 02:19:42;;;;;;;10.77;8.70;;;10.90;81.00;;;;;;5114614;28;20261;-89
2023/09/14 02:22:08;;;;;;;9.30;8.47;;;10.80;81.00;;;;;;5114484;28;20208;-90
2023/09/14 02:24:33;;;;;;;11.83;8.40;;;10.80;81.00;;;;;;5115708;28;20190;-90
2023/09/14 02:26:59;;;;;;;9.27;8.43;;;10.80;81.10;;;;;;5114505;28;20185;-90
2023/09/14 02:29:24;;;;;;;9.37;8.57;;;10.80;81.10;;;;;;5114288;28;20185;-89
2023/09/14 02:31:50;;;;;;;9.67;8.73;;;10.80;81.10;;;;;;5115439;28;20592;-89
2023/09/14 02:34:15;;;;;;;9.73;8.83;;;10.90;81.10;;;;;;5115558;28;20668;-89
2023/09/14 02:36:41;;;;;;;9.40;8.70;;;10.90;81.00;;;;;;5115395;28;20637;-89
2023/09/14 02:39:06;;;;;;;10.77;9.27;;;10.90;81.00;;;;;;5114243;28;20193;-89
2023/09/14 02:41:32;;;;;;;10.37;8.47;;;10.90;81.20;;;;;;5114271;28;20189;-89
2023/09/14 02:43:57;;;;;;;10.37;9.20;;;10.80;81.20;;;;;;5115329;28;20182;-89
2023/09/14 02:46:23;;;;;;;9.10;8.50;;;10.80;81.40;;;;;;5114067;28;20162;-89
2023/09/14 02:48:49;;;;;;;8.93;8.13;;;10.80;81.60;;;;;;5113890;28;20203;-89
2023/09/14 02:51:14;;;;;;;9.57;8.60;;;10.80;81.70;;;;;;5113889;28;20188;-89
2023/09/14 02:53:41;;;;;;;12.83;9.67;;;10.70;81.90;;;;;;5115019;28;20190;-89
2023/09/14 02:56:09;;;;;;;11.40;8.70;;;10.70;81.90;;;;;;5113718;28;20189;-89
2023/09/14 02:58:35;;;;;;;9.10;8.40;;;10.70;81.80;;;;;;5115274;28;20274;-89
2023/09/14 03:01:09;;;;;;;10.03;8.30;;;10.60;81.90;;;;;;5113795;28;20174;-89
2023/09/14 03:03:39;;;;;;;9.00;8.20;;;10.50;82.00;;;;;;5114400;28;20199;-89
2023/09/14 03:06:05;;;;;;;8.70;7.93;;;10.40;82.00;;;;;;5114462;28;20223;-90
2023/09/14 03:08:31;;;;;;;9.30;8.67;;;10.40;82.00;;;;;;5113598;28;20174;-89
2023/09/14 03:10:57;;;;;;;9.90;9.00;;;10.30;82.10;;;;;;5113551;28;20178;-89
2023/09/14 03:13:23;;;;;;;9.10;8.23;;;10.30;82.10;;;;;;5113524;28;20301;-89
2023/09/14 03:15:59;;;;;;;11.33;8.73;;;10.20;82.00;;;;;;5113525;28;20664;-89
2023/09/14 03:18:25;;;;;;;9.07;8.30;;;10.00;82.00;;;;;;5114545;28;20196;-89
2023/09/14 03:20:56;;;;;;;9.00;8.10;;;9.70;82.50;;;;;;5113315;28;20188;-89
2023/09/14 03:23:23;;;;;;;7.87;7.10;;;9.40;83.70;;;;;;5114513;27;20182;-90
2023/09/14 03:25:49;;;;;;;12.47;10.83;;;9.20;84.20;;;;;;5113315;28;20177;-89
2023/09/14 03:28:15;;;;;;;20.87;19.37;;;9.20;85.20;;;;;;5114488;28;20174;-88
2023/09/14 03:30:40;;;;;;;25.17;22.93;;;9.10;85.80;;;;;;5114615;28;20299;-89
2023/09/14 03:33:07;;;;;;;12.20;11.20;;;9.10;86.40;;;;;;5114317;28;20203;-88
2023/09/14 03:35:32;;;;;;;7.80;6.50;;;9.20;86.70;;;;;;5114297;28;20170;-89
2023/09/14 03:37:58;;;;;;;7.30;5.97;;;9.20;86.50;;;;;;5114176;27;20573;-88
2023/09/14 03:40:24;;;;;;;18.63;17.20;;;9.20;86.70;;;;;;5112992;28;20589;-89
2023/09/14 03:42:50;;;;;;;20.63;19.23;;;9.30;86.90;;;;;;5114294;28;20170;-89
2023/09/14 03:45:15;;;;;;;9.77;9.07;;;9.40;86.60;;;;;;5112842;28;20198;-88
2023/09/14 03:47:41;;;;;;;9.70;7.30;;;9.50;86.30;;;;;;5114115;28;20182;-88
2023/09/14 03:50:09;;;;;;;11.80;6.93;;;9.50;86.10;;;;;;5114080;28;20249;-88
2023/09/14 03:52:35;;;;;;;20.57;18.67;;;9.50;85.80;;;;;;5112840;28;20178;-88
2023/09/14 03:55:01;;;;;;;23.47;21.50;;;9.50;85.60;;;;;;5113950;28;20201;-89
2023/09/14 03:57:28;;;;;;;10.40;6.70;;;9.50;85.50;;;;;;5112782;28;20190;-89
2023/09/14 03:59:53;;;;;;;7.17;6.43;;;9.60;85.30;;;;;;5112109;28;20218;-90
2023/09/14 04:02:19;;;;;;;7.80;6.20;;;9.60;85.20;;;;;;5113902;28;20162;-89
2023/09/14 04:04:44;;;;;;;19.07;17.53;;;9.70;85.00;;;;;;5113945;28;20194;-89
2023/09/14 04:07:10;;;;;;;20.07;18.27;;;9.70;84.90;;;;;;5112914;28;20227;-89
2023/09/14 04:09:37;;;;;;;8.07;6.10;;;9.60;84.70;;;;;;5112518;28;20599;-89
2023/09/14 04:12:03;;;;;;;8.33;5.73;;;9.60;84.60;;;;;;5112693;28;20205;-89
2023/09/14 04:14:29;;;;;;;17.60;16.03;;;9.60;84.50;;;;;;5112739;28;20194;-91
2023/09/14 04:16:59;;;;;;;21.30;19.70;;;9.50;84.50;;;;;;5112681;28;20255;-89
2023/09/14 04:19:25;;;;;;;24.43;22.83;;;9.50;84.40;;;;;;5114202;28;20154;-89
2023/09/14 04:21:51;;;;;;;25.57;23.80;;;9.40;84.50;;;;;;5113677;28;20162;-89
2023/09/14 04:24:17;;;;;;;26.80;24.70;;;9.50;84.70;;;;;;5112482;28;20719;-89
2023/09/14 04:26:42;;;;;;;21.70;20.00;;;9.40;84.90;;;;;;5112475;28;20197;-89
2023/09/14 04:29:08;;;;;;;22.97;21.23;;;9.40;85.00;;;;;;5112311;28;20177;-88
2023/09/14 04:31:37;;;;;;;6.70;6.20;;;9.40;85.00;;;;;;5112383;28;20174;-88
2023/09/14 04:34:04;;;;;;;8.73;7.93;;;9.30;84.80;;;;;;5113550;28;20673;-89
2023/09/14 04:36:30;;;;;;;9.83;6.20;;;9.30;85.30;;;;;;5112481;28;20174;-89
2023/09/14 04:38:56;;;;;;;11.53;6.23;;;9.20;85.30;;;;;;5112425;28;20236;-87
2023/09/14 04:41:21;;;;;;;6.50;5.90;;;9.20;85.30;;;;;;5112365;28;20174;-90
2023/09/14 04:43:47;;;;;;;7.20;6.57;;;9.10;85.40;;;;;;5112246;28;20290;-89
2023/09/14 04:46:12;;;;;;;7.23;5.90;;;9.20;85.40;;;;;;5112169;28;20533;-87
2023/09/14 04:48:38;;;;;;;7.83;6.47;;;9.10;85.50;;;;;;5112195;28;20722;-89
2023/09/14 04:51:04;;;;;;;8.60;6.20;;;9.20;85.70;;;;;;5113515;28;20165;-89
2023/09/14 04:53:30;;;;;;;10.53;5.57;;;9.20;85.70;;;;;;5112154;28;20206;-89
2023/09/14 04:55:55;;;;;;;7.33;5.47;;;9.20;85.80;;;;;;5111922;28;20194;-90
2023/09/14 04:58:21;;;;;;;8.17;6.43;;;9.20;86.00;;;;;;5113255;28;20206;-89
2023/09/14 05:00:48;;;;;;;10.47;6.37;;;9.20;86.10;;;;;;5112094;28;20181;-89
2023/09/14 05:03:14;;;;;;;5.70;5.30;;;9.30;86.30;;;;;;5113212;28;20186;-90
2023/09/14 05:05:39;;;;;;;9.33;5.40;;;9.30;86.80;;;;;;5112112;28;20174;-89
2023/09/14 05:08:06;;;;;;;11.70;5.63;;;9.30;87.20;;;;;;5112154;28;20227;-90
2023/09/14 05:10:32;;;;;;;7.33;5.73;;;9.30;87.40;;;;;;5112124;28;20182;-90
2023/09/14 05:12:57;;;;;;;6.80;6.00;;;9.30;88.00;;;;;;5116723;28;20182;-89
2023/09/14 05:15:23;;;;;;;5.40;5.00;;;9.40;88.10;;;;;;5116979;28;20174;-90
2023/09/14 05:17:49;;;;;;;7.43;5.60;;;9.40;88.00;;;;;;5115778;28;20580;-89
2023/09/14 05:20:15;;;;;;;5.80;5.30;;;9.50;87.90;;;;;;5115749;28;20645;-89
2023/09/14 05:22:41;;;;;;;5.57;5.17;;;9.50;87.80;;;;;;5115937;28;20170;-88
2023/09/14 05:25:08;;;;;;;7.30;6.60;;;9.50;87.70;;;;;;5115600;28;20198;-89
2023/09/14 05:27:38;;;;;;;5.87;5.30;;;9.60;87.70;;;;;;5116844;28;20545;-89
2023/09/14 05:30:05;;;;;;;10.33;6.03;;;9.60;87.50;;;;;;5115566;28;20653;-89
2023/09/14 05:32:30;;;;;;;6.70;6.10;;;9.70;87.50;;;;;;5116593;28;20181;-90
2023/09/14 05:34:56;;;;;;;6.83;6.13;;;9.80;87.50;;;;;;5116802;28;20194;-89
2023/09/14 05:37:21;;;;;;;7.10;6.20;;;9.70;87.40;;;;;;5115845;28;20198;-89
2023/09/14 05:39:48;;;;;;;11.17;5.90;;;9.70;87.40;;;;;;5115437;28;20181;-88
2023/09/14 05:42:13;;;;;;;6.93;6.30;;;9.80;87.30;;;;;;5116573;28;20190;-89
2023/09/14 05:44:39;;;;;;;9.60;6.40;;;9.80;87.40;;;;;;5115114;28;20239;-89
2023/09/14 05:47:05;;;;;;;6.83;6.17;;;9.80;87.40;;;;;;5116005;28;20188;-89
2023/09/14 05:49:30;;;;;;;7.30;6.33;;;9.80;87.30;;;;;;5115314;28;20185;-89
2023/09/14 05:51:57;;;;;;;10.47;6.27;;;9.90;87.30;;;;;;5116450;28;20222;-88
2023/09/14 05:54:23;;;;;;;9.73;6.27;;;9.80;87.40;;;;;;5116288;28;20209;-90
2023/09/14 05:56:49;;;;;;;6.63;6.03;;;9.80;88.10;;;;;;5116091;27;20197;-89
2023/09/14 05:59:15;;;;;;;7.00;6.30;;;9.80;88.60;;;;;;5115054;28;20181;-90
2023/09/14 06:01:42;;;;;;;6.70;6.00;;;9.80;89.00;;;;;;5114997;28;20545;-89
2023/09/14 06:04:07;;;;;;;8.63;5.80;;;9.80;89.40;;;;;;5114914;28;20190;-89
2023/09/14 06:06:33;;;;;;;7.40;6.70;;;9.90;89.70;;;;;;5116171;28;20231;-88
2023/09/14 06:08:59;;;;;;;13.30;12.17;;;9.90;89.80;;;;;;5114730;28;20174;-89
2023/09/14 06:11:29;;;;;;;14.13;12.83;;;10.00;90.00;;;;;;5114615;28;20189;-90
2023/09/14 06:13:54;;;;;;;14.43;12.40;;;10.00;90.20;;;;;;5115105;28;20714;-89
2023/09/14 06:16:20;;;;;;;14.73;11.40;;;10.00;90.20;;;;;;5115964;28;20174;-89
2023/09/14 06:18:46;;;;;;;13.40;11.43;;;10.20;90.50;;;;;;5114555;28;20254;-89
2023/09/14 06:21:12;;;;;;;18.87;11.67;;;10.30;90.60;;;;;;5115896;28;20633;-89
2023/09/14 06:23:41;;;;;;;16.03;11.27;;;10.30;90.70;;;;;;5115183;28;20194;-89
2023/09/14 06:26:06;;;;;;;9.57;8.77;;;10.40;90.90;;;;;;5114506;28;20174;-89
2023/09/14 06:28:32;;;;;;;11.97;9.07;;;10.50;91.20;;;;;;5115637;28;20177;-89
2023/09/14 06:30:58;;;;;;;9.47;8.50;;;10.60;91.40;;;;;;5114494;28;20193;-89
2023/09/14 06:33:23;;;;;;;10.80;9.70;;;10.70;91.60;;;;;;5114302;28;20190;-89
2023/09/14 06:35:49;;;;;;;11.43;9.63;;;10.70;91.80;;;;;;5114388;28;20181;-89
2023/09/14 06:38:14;;;;;;;9.53;4.87;;;10.80;91.90;;;;;;5115483;28;20740;-89
2023/09/14 06:40:40;;;;;;;6.83;5.07;;;11.00;91.90;;;;;;5114262;28;20172;-89
2023/09/14 06:43:05;;;;;;;14.50;9.23;;;11.00;91.90;;;;;;5115684;28;20208;-89
2023/09/14 06:45:33;;;;;;;14.67;9.70;;;11.10;92.00;;;;;;5115444;28;20166;-89
2023/09/14 06:47:59;;;;;;;11.90;10.80;;;11.20;92.00;;;;;;5115361;28;20170;-90
2023/09/14 06:50:24;;;;;;;6.60;4.70;;;11.60;92.30;;;;;;5114908;28;20227;-90
2023/09/14 06:52:50;;;;;;;9.37;5.30;;;11.70;92.20;;;;;;5114063;28;20272;-88
2023/09/14 06:55:15;;;;;;;9.53;5.00;;;11.80;92.20;;;;;;5113896;28;20210;-89
2023/09/14 06:57:41;;;;;;;6.10;4.80;;;11.90;92.00;;;;;;5115180;28;20174;-88
2023/09/14 07:00:14;;;;;;;7.77;4.90;;;11.80;91.50;;;;;;5115471;27;20167;-89
2023/09/14 07:02:41;;;;;;;9.67;4.90;;;11.90;91.00;;;;;;5113967;28;20621;-89
2023/09/14 07:05:08;;;;;;;11.17;5.17;;;12.00;90.60;;;;;;5113674;28;20194;-88
2023/09/14 07:07:33;;;;;;;7.70;5.47;;;12.00;90.20;;;;;;5113672;28;20177;-90
2023/09/14 07:09:59;;;;;;;5.97;5.40;;;12.00;89.60;;;;;;5115177;28;20165;-88
2023/09/14 07:12:24;;;;;;;6.67;5.17;;;12.20;88.80;;;;;;5114794;28;20252;-89
2023/09/14 07:14:50;;;;;;;11.53;5.60;;;12.40;87.70;;;;;;5113614;28;20284;-89
2023/09/14 07:17:16;;;;;;;8.97;5.70;;;12.30;87.30;;;;;;5113477;28;20202;-89
2023/09/14 07:19:42;;;;;;;7.83;5.77;;;12.30;87.20;;;;;;5114759;28;20645;-90
2023/09/14 07:22:07;;;;;;;6.33;5.73;;;12.40;87.20;;;;;;5113579;28;20176;-90
2023/09/14 07:24:33;;;;;;;7.03;5.47;;;12.40;87.20;;;;;;5114811;28;20193;-88
2023/09/14 07:26:59;;;;;;;6.47;5.63;;;12.50;87.20;;;;;;5114319;28;20174;-91
2023/09/14 07:29:25;;;;;;;13.13;6.40;;;12.50;86.80;;;;;;5113203;28;20174;-92
2023/09/14 07:31:51;;;;;;;8.07;6.13;;;12.70;85.80;;;;;;5114679;28;20177;-92
2023/09/14 07:34:16;;;;;;;9.67;6.90;;;12.80;85.20;;;;;;5113749;28;20196;-92
2023/09/14 07:36:42;;;;;;;9.73;6.63;;;12.80;83.90;;;;;;5114260;28;20629;-91
2023/09/14 07:39:07;;;;;;;9.20;6.93;;;12.90;83.70;;;;;;5114379;27;20193;-91
2023/09/14 07:41:33;;;;;;;12.40;7.20;;;12.90;83.50;;;;;;5114236;28;20178;-91
2023/09/14 07:43:58;;;;;;;9.77;7.30;;;13.00;83.40;;;;;;5114680;27;20189;-91
2023/09/14 07:46:24;;;;;;;13.93;7.40;;;13.00;83.70;;;;;;5113167;28;20180;-92
2023/09/14 07:48:49;;;;;;;9.87;8.90;;;13.10;83.00;;;;;;5114749;27;20541;-90
2023/09/14 07:51:15;;;;;;;13.67;8.93;;;13.10;81.30;;;;;;5114260;28;20189;-91
2023/09/14 07:53:41;;;;;;;10.03;8.70;;;13.30;81.40;;;;;;5112866;28;20201;-93
2023/09/14 07:56:06;;;;;;;12.23;8.67;;;13.40;81.20;;;;;;5113817;28;20234;-91
2023/09/14 07:58:32;;;;;;;8.53;7.93;;;13.60;80.90;;;;;;5112701;28;20202;-91
2023/09/14 08:00:57;;;;;;;13.23;11.93;;;13.70;81.00;;;;;;5112700;28;20202;-91
2023/09/14 08:03:25;;;;;;;22.00;20.23;;;13.60;76.90;;;;;;5113853;28;20601;-91
2023/09/14 08:05:51;;;;;;;25.77;23.47;;;13.70;77.30;;;;;;5114182;28;20162;-91
2023/09/14 08:08:17;;;;;;;28.93;26.97;;;13.80;77.30;;;;;;5113893;28;20161;-92
2023/09/14 08:10:49;;;;;;;28.20;26.07;;;13.90;77.60;;;;;;5113768;28;20701;-90
2023/09/14 08:13:15;;;;;;;10.83;9.77;;;14.00;78.40;;;;;;5112634;28;20201;-91
2023/09/14 08:15:41;;;;;;;12.43;10.37;;;14.00;77.80;;;;;;5113837;28;20311;-90
2023/09/14 08:18:06;;;;;;;17.07;15.13;;;14.10;77.70;;;;;;5112633;28;20215;-90
2023/09/14 08:20:35;;;;;;;26.50;24.10;;;14.30;77.20;;;;;;5114041;28;20573;-91
2023/09/14 08:23:01;;;;;;;27.43;25.70;;;14.30;76.40;;;;;;5113906;28;20166;-91
2023/09/14 08:25:26;;;;;;;10.87;9.90;;;14.40;75.90;;;;;;5113696;28;20188;-91
2023/09/14 08:27:52;;;;;;;11.93;9.40;;;14.40;75.50;;;;;;5113879;28;20223;-92
2023/09/14 08:30:17;;;;;;;22.27;20.27;;;14.50;76.10;;;;;;5112396;28;20174;-92
2023/09/14 08:32:43;;;;;;;24.45;22.90;;;14.60;74.50;;;;;;5112413;28;20181;-90
2023/09/14 08:35:23;;;;;;;26.52;24.73;;;14.70;74.40;;;;;;5113596;28;20251;-88
2023/09/14 08:37:52;;;;;;;12.20;10.90;;;14.70;74.20;;;;;;5112292;28;20204;-92
2023/09/14 08:40:18;;;;;;;11.98;10.63;;;14.80;75.10;;;;;;5112556;28;20170;-91
2023/09/14 08:42:52;;;;;;;24.10;22.02;;;14.90;75.90;;;;;;5112506;28;20194;-90
2023/09/14 08:45:26;;;;;;;25.38;23.13;;;15.10;74.80;;;;;;5112193;28;20176;-91
2023/09/14 08:47:52;;;;;;;13.60;12.30;;;15.10;73.30;;;;;;5116353;28;20182;-90
2023/09/14 08:50:19;;;;;;;13.55;12.43;;;15.20;73.30;;;;;;5116290;28;20178;-92
2023/09/14 08:52:45;;;;;;;15.10;12.77;;;15.20;72.60;;;;;;5116288;28;20178;-90
2023/09/14 08:55:12;;;;;;;20.33;18.73;;;15.30;73.50;;;;;;5116056;28;20201;-90
2023/09/14 08:57:44;;;;;;;25.58;23.25;;;15.50;73.60;;;;;;5117013;28;20557;-91
2023/09/14 09:00:17;;;;;;;14.82;13.20;;;15.60;72.80;;;;;;5117512;28;20668;-91
2023/09/14 09:02:49;;;;;;;14.80;13.43;;;15.70;73.00;;;;;;5116414;28;20534;-91
2023/09/14 09:05:16;;;;;;;16.58;14.90;;;15.80;72.00;;;;;;5115964;28;20194;-90
2023/09/14 09:07:44;;;;;;;16.20;14.65;;;15.80;70.90;;;;;;5116939;28;20251;-90
2023/09/14 09:10:24;;;;;;;17.20;14.50;;;16.00;71.60;;;;;;5117562;28;20170;-91
2023/09/14 09:12:52;;;;;;;16.20;15.00;;;16.10;70.90;;;;;;5115944;28;20185;-90
2023/09/14 09:15:18;;;;;;;18.10;16.60;;;16.20;69.10;;;;;;5117044;28;20170;-89
2023/09/14 09:17:44;;;;;;;18.25;16.70;;;16.30;67.60;;;;;;5115863;28;20223;-90
2023/09/14 09:20:24;;;;;;;16.98;15.50;;;16.40;66.70;;;;;;5116725;28;20255;-88
2023/09/14 09:22:55;;;;;;;16.85;15.20;;;16.50;65.60;;;;;;5116983;28;20162;-88
2023/09/14 09:25:22;;;;;;;15.68;14.35;;;16.50;66.90;;;;;;5115684;28;20174;-90
2023/09/14 09:27:56;;;;;;;17.23;15.45;;;16.70;69.10;;;;;;5115825;28;20181;-88
2023/09/14 09:30:25;;;;;;;19.05;17.50;;;16.80;68.80;;;;;;5115758;28;20174;-88
2023/09/14 09:32:55;;;;;;;17.80;16.33;;;17.00;67.10;;;;;;5115443;28;20540;-88
2023/09/14 09:35:23;;;;;;;19.35;17.48;;;16.90;65.70;;;;;;5115423;28;20162;-88
2023/09/14 09:37:50;;;;;;;20.15;18.33;;;16.80;65.80;;;;;;5116495;28;20669;-88
2023/09/14 09:40:17;;;;;;;18.63;17.17;;;17.20;66.20;;;;;;5116668;28;20584;-89
2023/09/14 09:42:43;;;;;;;18.50;17.10;;;17.40;66.80;;;;;;5116812;28;20257;-88
2023/09/14 09:45:09;;;;;;;19.13;17.63;;;17.50;66.10;;;;;;5115726;28;20236;-88
2023/09/14 09:47:36;;;;;;;19.08;17.38;;;17.80;66.30;;;;;;5116369;28;20186;-88
2023/09/14 09:50:05;;;;;;;19.33;17.80;;;17.90;67.20;;;;;;5116348;28;20216;-88
2023/09/14 09:52:33;;;;;;;19.48;17.80;;;18.00;65.20;;;;;;5115159;28;20178;-89
2023/09/14 09:54:58;;;;;;;20.85;19.15;;;18.00;63.90;;;;;;5114838;28;20300;-89
2023/09/14 09:57:51;;;;;;;20.38;18.48;;;17.90;64.30;;;;;;5114311;28;20290;-88
2023/09/14 10:00:19;;;;;;;20.05;18.70;;;17.80;63.70;;;;;;5108967;28;20178;-88
2023/09/14 10:02:53;;;;;;;18.95;17.63;;;17.90;65.00;;;;;;5116309;28;20181;-88
2023/09/14 10:05:35;;;;;;;19.15;17.55;;;17.70;62.30;;;;;;5115009;28;20166;-88
2023/09/14 10:08:02;;;;;;;19.23;17.52;;;17.60;66.10;;;;;;5114925;28;20165;-88
2023/09/14 10:10:32;;;;;;;19.20;17.70;;;17.60;64.00;;;;;;5115914;28;20231;-88
2023/09/14 10:13:00;;;;;;;19.38;17.88;;;17.70;65.20;;;;;;5115907;28;20578;-87
2023/09/14 10:15:27;;;;;;;19.35;17.77;;;17.80;64.00;;;;;;5114786;28;20594;-88
2023/09/14 10:17:57;;;;;;;19.33;17.80;;;17.80;62.60;;;;;;5114547;28;20289;-88
2023/09/14 10:20:24;;;;;;;19.38;17.35;;;18.00;63.70;;;;;;5114470;28;20525;-87
2023/09/14 10:22:50;;;;;;;18.88;17.27;;;18.00;60.50;;;;;;5114560;28;20166;-87
2023/09/14 10:25:16;;;;;;;19.15;17.42;;;17.80;62.40;;;;;;5114465;28;20194;-88
2023/09/14 10:27:42;;;;;;;19.27;17.75;;;18.20;62.40;;;;;;5115786;28;20166;-88
2023/09/14 10:30:14;;;;;;;19.17;17.73;;;18.40;62.50;;;;;;5114372;28;20265;-88
2023/09/14 10:32:41;;;;;;;19.23;17.58;;;18.60;63.40;;;;;;5114344;28;20193;-88
2023/09/14 10:35:07;;;;;;;18.33;16.73;;;18.70;61.70;;;;;;5115464;28;20186;-88
2023/09/14 10:37:35;;;;;;;18.25;16.90;;;18.70;59.70;;;;;;5115298;28;20221;-90
2023/09/14 10:40:04;;;;;;;17.73;16.45;;;18.60;60.70;;;;;;5114343;28;20556;-88
2023/09/14 10:42:30;;;;;;;17.90;16.40;;;18.80;60.00;;;;;;5115661;28;20193;-88
2023/09/14 10:44:56;;;;;;;17.55;16.15;;;18.60;59.20;;;;;;5115483;28;20232;-91
2023/09/14 10:47:25;;;;;;;18.85;17.20;;;18.30;60.20;;;;;;5114007;28;20657;-88
2023/09/14 10:49:51;;;;;;;18.58;17.17;;;18.20;60.40;;;;;;5115222;27;20244;-88
2023/09/14 10:52:24;;;;;;;18.95;17.48;;;18.40;62.60;;;;;;5114045;28;20178;-89
2023/09/14 10:54:50;;;;;;;18.58;17.25;;;18.70;59.90;;;;;;5114953;28;20186;-89
2023/09/14 10:57:23;;;;;;;19.58;17.85;;;19.00;58.80;;;;;;5115633;27;20208;-89
2023/09/14 10:59:49;;;;;;;19.05;17.63;;;18.90;57.40;;;;;;5113842;28;20235;-89
2023/09/14 11:02:37;;;;;;;19.00;17.52;;;19.10;60.20;;;;;;5113711;28;20181;-89
2023/09/14 11:05:12;;;;;;;19.35;17.90;;;18.80;55.90;;;;;;5114899;28;20190;-88
2023/09/14 11:07:40;;;;;;;18.95;17.33;;;19.00;56.20;;;;;;5115037;28;20599;-88
2023/09/14 11:10:10;;;;;;;19.58;17.98;;;18.90;54.30;;;;;;5113422;28;20178;-88
2023/09/14 11:12:35;;;;;;;20.25;18.30;;;19.00;55.80;;;;;;5113585;28;20178;-88
2023/09/14 11:15:11;;;;;;;18.63;17.38;;;19.20;54.60;;;;;;5113549;28;20681;-88
2023/09/14 11:17:45;;;;;;;19.10;17.63;;;19.70;56.90;;;;;;5114691;28;20609;-88
2023/09/14 11:20:19;;;;;;;19.55;18.25;;;19.50;54.30;;;;;;5113419;28;20538;-88
2023/09/14 11:22:45;;;;;;;19.08;17.70;;;19.80;54.70;;;;;;5113417;28;20226;-88
2023/09/14 11:25:25;;;;;;;18.92;17.48;;;20.10;52.90;;;;;;5114549;28;20189;-88
2023/09/14 11:27:51;;;;;;;18.58;17.27;;;19.90;51.00;;;;;;5113303;28;20173;-89
2023/09/14 11:30:19;;;;;;;19.65;18.13;;;19.90;52.40;;;;;;5114553;28;20166;-88
2023/09/14 11:32:44;;;;;;;18.63;17.13;;;19.80;54.10;;;;;;5114299;27;20266;-88
2023/09/14 11:35:11;;;;;;;18.88;17.48;;;19.80;54.00;;;;;;5114249;28;20221;-88
2023/09/14 11:37:39;;;;;;;18.67;17.17;;;19.80;54.50;;;;;;5114501;28;20649;-88
2023/09/14 11:40:10;;;;;;;18.98;17.58;;;19.70;52.90;;;;;;5113064;28;20185;-88
2023/09/14 11:43:06;;;;;;;18.90;17.40;;;20.00;55.50;;;;;;5113041;28;20727;-88
2023/09/14 11:45:39;;;;;;;18.60;17.25;;;20.30;53.00;;;;;;5114253;27;20628;-88
2023/09/14 11:48:06;;;;;;;18.52;17.13;;;20.20;52.50;;;;;;5112945;28;20181;-88
2023/09/14 11:50:33;;;;;;;18.58;17.08;;;20.70;55.30;;;;;;5112945;28;20641;-88
2023/09/14 11:52:59;;;;;;;18.52;17.23;;;20.60;54.00;;;;;;5112784;28;20277;-87
2023/09/14 11:55:26;;;;;;;19.00;17.63;;;20.00;50.50;;;;;;5112756;28;20284;-88
2023/09/14 11:57:52;;;;;;;19.42;17.67;;;19.60;54.30;;;;;;5113995;28;20565;-88
2023/09/14 12:00:20;;;;;;;20.17;18.13;;;20.00;53.30;;;;;;5112747;28;20174;-88
2023/09/14 12:02:47;;;;;;;20.63;18.95;;;20.50;54.20;;;;;;5114044;28;20177;-88
2023/09/14 12:05:13;;;;;;;18.92;17.45;;;20.00;52.90;;;;;;5112760;28;20186;-88
2023/09/14 12:07:39;;;;;;;18.85;17.20;;;20.30;55.20;;;;;;5113011;28;20641;-89
2023/09/14 12:10:19;;;;;;;18.88;17.33;;;20.90;52.80;;;;;;5112548;28;20219;-88
2023/09/14 12:12:45;;;;;;;18.00;16.70;;;20.90;52.30;;;;;;5112658;28;20166;-87
2023/09/14 12:15:21;;;;;;;18.52;16.83;;;20.30;52.80;;;;;;5112574;28;20201;-88
2023/09/14 12:17:51;;;;;;;17.88;16.40;;;20.50;53.80;;;;;;5113783;28;20318;-87
2023/09/14 12:20:17;;;;;;;17.48;16.33;;;20.80;54.50;;;;;;5113517;28;20173;-87
2023/09/14 12:22:43;;;;;;;18.23;16.85;;;20.70;51.30;;;;;;5113628;28;20166;-87
2023/09/14 12:25:09;;;;;;;18.08;16.58;;;20.80;52.20;;;;;;5116223;28;20202;-87
2023/09/14 12:27:35;;;;;;;18.15;16.63;;;20.30;51.70;;;;;;5113922;28;20667;-87
2023/09/14 12:30:07;;;;;;;18.77;17.30;;;20.90;54.10;;;;;;5112808;28;20181;-87
2023/09/14 12:32:35;;;;;;;19.23;17.38;;;20.70;52.10;;;;;;5114059;28;20161;-87
2023/09/14 12:35:01;;;;;;;18.88;17.40;;;21.10;52.10;;;;;;5113795;28;20192;-88
2023/09/14 12:37:28;;;;;;;18.17;16.65;;;21.00;51.50;;;;;;5112442;28;20194;-88
2023/09/14 12:39:54;;;;;;;18.30;17.00;;;21.20;49.90;;;;;;5113865;28;20173;-87